NCAR-RAP Real-Time Weather Data

Output produced by METARs form (08 May 2021  16:55 UTC)
found at http://weather.rap.ucar.edu/surface/
 
KIAD 081552Z 31011KT 10SM BKN045 BKN075 15/05 A2993 RMK AO2 SLP136 T01500050
KIAD 081452Z 32013G24KT 10SM SCT036 BKN060 13/06 A2993 RMK AO2 SLP135 T01330061 51005
KIAD 081352Z 33010KT 10SM FEW045 BKN060 BKN100 11/06 A2993 RMK AO2 SLP135 T01060061
KIAD 081252Z COR 32010KT 10SM BKN040 BKN050 08/06 A2992 RMK AO2 SLP133 T00830061
KIAD 081152Z 33005KT 10SM BKN045 OVC055 07/06 A2992 RMK AO2 RAE35 SLP130 P0002 60003 70022 T00720056 10072 20039 53014
KIAD 081052Z 32004KT 8SM -RA FEW025 BKN046 OVC060 07/06 A2990 RMK AO2 RAB32 SLP124 P0001 T00670056
KIAD 080952Z 00000KT 10SM BKN060 OVC090 07/06 A2988 RMK AO2 SLP117 T00670056
KIAD 080852Z 00000KT 10SM SCT140 BKN220 05/04 A2987 RMK AO2 SLP116 T00500044 55007
KIAD 080752Z 00000KT 9SM SCT170 04/03 A2987 RMK AO2 SLP116 T00390033
KIAD 080652Z 00000KT 9SM CLR 04/03 A2988 RMK AO2 SLP119 T00390033
KIAD 080552Z 00000KT 10SM CLR 04/03 A2989 RMK AO2 SLP122 T00440033 10117 20044 58009
KIAD 080452Z 28003KT 10SM CLR 07/04 A2990 RMK AO2 SLP126 T00670044 401670050
KIAD 080352Z 28005KT 10SM FEW240 07/06 A2991 RMK AO2 SLP129 T00720056
KIAD 080252Z 31003KT 10SM FEW060 FEW170 SCT240 08/07 A2992 RMK AO2 SLP131 T00830067 51010
KIAD 080152Z 33005KT 10SM FEW027 SCT060 10/07 A2991 RMK AO2 SLP130 T01000072
KIAD 080052Z 30005KT 10SM FEW013 SCT027 BKN060 BKN130 10/08 A2990 RMK AO2 SLP123 T01000083
KIAD 080031Z 32007KT 10SM FEW013 SCT027 BKN060 BKN130 11/08 A2989 RMK AO2 T01060083
KIAD 072352Z 31007KT 10SM FEW007 SCT013 BKN025 BKN130 12/09 A2989 RMK AO2 RAE14 SLP121 P0001 60019 T01170094 10150 20111 51013
KIAD 072342Z 31007KT 10SM FEW007 SCT013 BKN025 BKN130 12/09 A2989 RMK AO2 RAE14 P0001 T01170094
KIAD 072252Z 34004KT 8SM -RA BKN013 OVC038 12/09 A2988 RMK AO2 SLP117 P0004 T01170094
KIAD 072239Z 34005KT 6SM -RA BKN013 OVC038 12/09 A2987 RMK AO2 P0003 T01170089
KIAD 072152Z 32008KT 10SM -RA SCT019 BKN036 OVC065 12/09 A2987 RMK AO2 LTG DSNT W RAE07B48 SLP113 P0000 T01220089
KIAD 072052Z 00000KT 10SM -RA FEW022 BKN060 OVC075 12/09 A2985 RMK AO2 SLP108 P0005 60014 T01220094 58001
KIAD 071952Z 21009KT 3SM RA BR SCT022 BKN032 OVC048 11/09 A2987 RMK AO2 SLP114 P0008 T01110094
KIAD 071852Z 25004KT 5SM -RA FEW027 BKN035 OVC055 13/09 A2986 RMK AO2 SLP111 P0001 T01280094
KIAD 071826Z VRB06KT 4SM RA SCT020 BKN030 OVC045 14/08 A2985 RMK AO2 LTG DSNT E P0000 T01440083
KIAD 071752Z 22008G16KT 8SM -RA SCT045 BKN055 OVC070 15/08 A2985 RMK AO2 RAB25 SLP109 P0000 60000 T01500078 10167 20100 58010
KIAD 071652Z 16007KT 10SM FEW020 BKN048 BKN090 OVC200 17/06 A2986 RMK AO2 SLP113 T01670061
KIAD 071552Z 17005KT 10SM FEW033 SCT080 BKN130 OVC170 16/06 A2988 RMK AO2 SLP119 T01560061
KIAD 071452Z 19006KT 10SM BKN085 BKN150 BKN230 15/07 A2988 RMK AO2 SLP118 T01500067 56005
KIAD 071352Z 00000KT 10SM SCT070 BKN150 BKN200 13/07 A2989 RMK AO2 SLP121 T01330072
KIAD 071252Z 28003KT 10SM BKN075 BKN160 BKN220 11/07 A2989 RMK AO2 SLP122 T01110072
KIAD 071152Z 00000KT 10SM BKN075 BKN150 BKN240 10/07 A2990 RMK AO2 SLP124 T01000072 10100 20050 55001
KIAD 071052Z 00000KT 10SM FEW080 BKN140 BKN250 08/07 A2990 RMK AO2 SLP122 T00780067
KIAD 070952Z 20003KT 10SM FEW140 FEW250 06/04 A2989 RMK AO2 SLP123 T00560044
KIAD 070852Z 00000KT 10SM FEW140 06/05 A2990 RMK AO2 SLP125 T00610050 56015
KIAD 070752Z 00000KT 10SM FEW140 06/05 A2991 RMK AO2 SLP127 T00610050
KIAD 070652Z 00000KT 10SM SCT150 07/06 A2993 RMK AO2 SLP134 T00670056
KIAD 070552Z 00000KT 10SM SCT140 08/06 A2995 RMK AO2 SLP140 T00780056 10144 20072 58008
KIAD 070452Z COR 00000KT COR 10SM BKN160 08/06 A2996 RMK AO2 SLP144 T00780061 401830072
KIAD 070352Z 00000KT 10SM BKN220 08/06 A2996 RMK AO2 SLP146 T00830061
KIAD 070252Z 00000KT 10SM BKN170 11/07 A2997 RMK AO2 SLP148 T01060067 51003
KIAD 070152Z 17003KT 10SM FEW120 BKN200 11/07 A2997 RMK AO2 SLP149 T01060067
KIAD 070052Z 15003KT 10SM BKN120 BKN250 11/06 A2997 RMK AO2 SLP149 T01110061
KIAD 062352Z 00000KT 10SM SCT120 BKN200 14/05 A2996 RMK AO2 SLP145 T01440050 10183 20144 55000
KIAD 062252Z VRB03KT 10SM FEW065 BKN200 17/03 A2995 RMK AO2 SLP141 T01720028
KIAD 062152Z 00000KT 10SM FEW065 BKN200 18/03 A2995 RMK AO2 SLP142 T01780028
KIAD 062052Z 31006KT 10SM FEW046 BKN140 BKN200 18/03 A2996 RMK AO2 SLP145 T01780028 56019
KIAD 061952Z 27005KT 10SM FEW040 BKN250 17/03 A2997 RMK AO2 SLP149 T01670028
KIAD 061852Z 30006KT 10SM FEW040 BKN250 17/03 A2999 RMK AO2 SLP155 T01720033
KIAD 061752Z VRB06KT 10SM FEW040 BKN250 17/03 A3002 RMK AO2 SLP165 T01670028 10167 20106 58022